Flight Track Log - Related Links

Times and Time Zones

All times are in EDT time to prevent confusion due to time zone crossing. See the DAL3691 flight status page for this flight to view local times or setup timezone preferences in your user account.

Time Position Orientation Groundspeed Altitude Reporting Facility
EDT Latitude Longitude Course Direction KTS MPH feet Rate Location/Type
Mon 06:50:00 PM 40.2992 -73.4496 159° South  Level FlightAware Approximate
Mon 06:51:00 PM 40.2169 -73.3687 146° Southeast  Level FlightAware Approximate
Mon 06:51:06 PM 40.4378 -73.6125 219° Southwest 274 315 10,300  Level New York Center
Mon 06:52:00 PM 40.1291 -73.2906 146° Southeast  Level FlightAware Approximate
Mon 06:52:06 PM 40.3731 -73.5417 140° Southeast 292 336 11,500  Level New York Center
Mon 06:53:00 PM 40.0459 -73.2949 223° Southwest  Level FlightAware Approximate
Mon 06:54:00 PM 39.9662 -73.3863 220° Southwest  Level FlightAware Approximate
Mon 06:54:07 PM 40.2044 -73.4342 154° Southeast 347 399 15,200  Level New York Center
Mon 06:55:00 PM 39.8843 -73.4743 219° Southwest  Level FlightAware Approximate
Mon 06:56:00 PM 39.8023 -73.5620 219° Southwest  Level FlightAware Approximate
Mon 06:56:05 PM 40.0247 -73.5494 206° Southwest 360 414 18,800  Level New York Center
Mon 06:57:05 PM 39.9356 -73.6161 210° Southwest 370 426 20,100 1,106 Climbing New York Center
Mon 06:58:26 PM 39.8214 -73.7006 210° Southwest 379 436 21,400 1,011 Climbing Washington Center
Mon 07:00:00 PM 39.6714 -73.7939 206° Southwest  Level FlightAware Approximate
Mon 07:01:26 PM 39.5353 -73.9261 206° Southwest 405 466 24,500  Level Washington Center
Mon 07:02:27 PM 39.4361 -74.0008 210° Southwest 405 466 25,500 915 Climbing Washington Center
Mon 07:03:24 PM 39.3478 -74.0886 218° Southwest 405 466 26,300 712 Climbing Washington Center
Mon 07:04:25 PM 39.2592 -74.1844 220° Southwest 410 472 26,900 541 Climbing Washington Center
Mon 07:05:26 PM 39.1686 -74.2825 220° Southwest 422 486 27,400 492 Climbing Washington Center
Mon 07:06:27 PM 39.0800 -74.3778 220° Southwest 427 491 27,900 504 Climbing Washington Center
Mon 07:07:25 PM 38.9914 -74.4753 221° Southwest 427 491 28,400 504 Climbing Washington Center
Mon 07:08:26 PM 38.9006 -74.5728 220° Southwest 427 491 28,900 496 Climbing Washington Center
Mon 07:09:26 PM 38.8075 -74.6700 219° Southwest 427 491 29,400 508 Climbing Washington Center
Mon 07:10:24 PM 38.7186 -74.7669 220° Southwest 427 491 29,900 150 Climbing Washington Center
Mon 07:12:00 PM 38.5875 -74.9022 219° Southwest  Level FlightAware Approximate
Mon 07:13:26 PM 38.4389 -75.0617 219° Southwest 433 498 30,000  Level Washington Center
Mon 07:15:25 PM 38.2519 -75.2664 221° Southwest 446 513 30,000  Level Washington Center
Mon 07:16:25 PM 38.1561 -75.3647 219° Southwest 452 520 30,000  Level Washington Center
Mon 07:17:26 PM 38.0625 -75.4653 220° Southwest 452 520 30,000  Level Washington Center
Mon 07:19:26 PM 37.8478 -75.6261 211° Southwest 452 520 30,000  Level Washington Center
Mon 07:20:25 PM 37.7436 -75.7047 211° Southwest 447 514 30,000  Level Washington Center
Mon 07:21:25 PM 37.6369 -75.7858 211° Southwest 447 514 30,000  Level Washington Center
Mon 07:22:26 PM 37.5283 -75.8642 210° Southwest 453 521 30,000  Level Washington Center
Mon 07:23:24 PM 37.4156 -75.9264 204° Southwest 442 509 30,000  Level Washington Center
Mon 07:25:26 PM 37.1794 -76.0506 203° Southwest 442 509 30,000  Level Washington Center
Mon 07:26:27 PM 37.0667 -76.1125 204° Southwest 442 509 30,000  Level Washington Center
Mon 07:27:24 PM 36.9494 -76.1664 200° South 442 509 30,000  Level Washington Center
Mon 07:28:25 PM 36.8511 -76.2356 209° Southwest 442 509 30,000  Level Washington Center
Mon 07:29:26 PM 36.7547 -76.3256 217° Southwest 442 509 30,000  Level Washington Center
Mon 07:30:24 PM 36.6456 -76.4256 216° Southwest 442 509 30,000  Level Washington Center
Mon 07:31:25 PM 36.5489 -76.5150 217° Southwest 447 514 30,000  Level Washington Center
Mon 07:33:26 PM 36.3533 -76.6881 215° Southwest 442 509 30,000  Level Washington Center
Mon 07:34:27 PM 36.2544 -76.7742 215° Southwest 442 509 30,000  Level Washington Center
Mon 07:35:26 PM 36.1597 -76.8628 217° Southwest 437 503 30,000  Level Washington Center
Mon 07:36:26 PM 36.0608 -76.9461 214° Southwest 437 503 30,000  Level Washington Center
Mon 07:37:24 PM 35.9658 -77.0292 215° Southwest 432 497 30,000  Level Washington Center
Mon 07:38:25 PM 35.8711 -77.1147 216° Southwest 432 497 30,000  Level Washington Center
Mon 07:39:27 PM 35.7781 -77.2025 217° Southwest 432 497 30,000  Level Washington Center
Mon 07:41:00 PM 35.6383 -77.3210 215° Southwest  Level FlightAware Approximate
Mon 07:42:27 PM 35.4864 -77.4567 215° Southwest 432 497 30,000  Level Washington Center
Mon 07:43:24 PM 35.3911 -77.5411 216° Southwest 432 497 30,000  Level Washington Center
Mon 07:44:25 PM 35.2958 -77.6331 218° Southwest 432 497 30,000 -363 Level Washington Center
Mon 07:46:26 PM 35.1150 -77.8214 220° Southwest 433 498 28,900 -667 Descending Washington Center
Mon 07:47:25 PM 35.0214 -77.9153 219° Southwest 438 504 28,000 -458 Descending Washington Center
Mon 07:48:24 PM 34.9319 -78.0114 221° Southwest 438 504 28,000  Level Washington Center
Mon 07:50:25 PM 34.7656 -78.1861 221° Southwest 428 493 28,000  Level Washington Center
Mon 07:51:24 PM 34.6758 -78.2792 220° Southwest 428 493 28,000  Level Washington Center
Mon 07:53:26 PM 34.4942 -78.4622 220° Southwest 428 493 28,000  Level Washington Center
Mon 07:53:50 PM 34.4547 -78.5036 221° Southwest 441 507 28,000  Level Jacksonville Center
Mon 07:54:50 PM 34.3619 -78.5939 219° Southwest 441 507 28,000  Level Jacksonville Center
Mon 07:55:50 PM 34.2733 -78.6889 222° Southwest 441 507 28,000 -150 Level Jacksonville Center
Mon 07:56:50 PM 34.1869 -78.7858 223° Southwest 434 499 27,700 -900 Descending Jacksonville Center
Mon 07:57:50 PM 34.1022 -78.8825 223° Southwest 424 488 26,200 -850 Descending Jacksonville Center
Mon 07:58:50 PM 34.0178 -78.9767 223° Southwest 424 488 26,000 -733 Descending Jacksonville Center
Mon 08:00:50 PM 33.8461 -79.1719 223° Southwest 414 476 24,000 -1,220 Descending Jacksonville Center
Mon 08:02:00 PM 33.7419 -79.2582 207° Southwest  Level FlightAware Approximate
Mon 08:03:50 PM 33.6039 -79.3764 213° Southwest 363 418 19,900  Level Jacksonville Center
Mon 08:04:50 PM 33.5200 -79.4422 213° Southwest 358 412 17,700 -2,250 Descending Jacksonville Center
Mon 08:05:50 PM 33.4381 -79.5000 210° Southwest 358 412 15,400 -2,250 Descending Jacksonville Center
Mon 08:06:50 PM 33.3564 -79.5628 213° Southwest 358 412 13,200 -2,300 Descending Jacksonville Center
Mon 08:07:50 PM 33.2828 -79.6253 215° Southwest 345 397 10,800 -2,400 Descending Jacksonville Center
Mon 08:08:50 PM 33.2386 -79.6939 232° Southwest 301 346 8,400 -2,200 Descending Jacksonville Center
Mon 08:09:00 PM 33.0948 -79.7430 213° Southwest  Level FlightAware Approximate
Mon 08:09:50 PM 33.1944 -79.7650 233° Southwest 280 322 6,400  Level Jacksonville Center
Mon 08:10:50 PM 33.1522 -79.8311 233° Southwest 266 306 4,700 -1,550 Descending Jacksonville Center
Mon 08:11:50 PM 33.1161 -79.8844 231° Southwest 244 281 3,300 -1,200 Descending Jacksonville Center
Mon 08:12:50 PM 33.0797 -79.9400 232° Southwest 224 258 2,300 -650 Descending Jacksonville Center
Mon 08:13:50 PM 33.0325 -79.9664 205° Southwest 201 231 2,000 -300 Descending Jacksonville Center
Mon 08:14:50 PM 32.9911 -79.9900 206° Southwest 182 209 1,700 -300 Descending Jacksonville Center

Login

Don't have an account? Register now (free) for customized features, flight alerts, and more!